sensor_id;sensor_type;location;lat;lon;timestamp;P1;durP1;ratioP1;P2;durP2;ratioP2
13989;SDS011;7069;52.528;13.316;2023-04-24T00:00:58;5.03;;;4.55;;
13989;SDS011;7069;52.528;13.316;2023-04-24T00:03:26;4.30;;;3.88;;
13989;SDS011;7069;52.528;13.316;2023-04-24T00:05:53;4.40;;;4.00;;
13989;SDS011;7069;52.528;13.316;2023-04-24T00:08:21;4.70;;;4.25;;
13989;SDS011;7069;52.528;13.316;2023-04-24T00:10:49;4.63;;;4.25;;
13989;SDS011;7069;52.528;13.316;2023-04-24T00:13:15;5.32;;;4.63;;
13989;SDS011;7069;52.528;13.316;2023-04-24T00:15:42;4.95;;;4.47;;
13989;SDS011;7069;52.528;13.316;2023-04-24T00:18:08;4.78;;;4.35;;
13989;SDS011;7069;52.528;13.316;2023-04-24T00:20:35;4.20;;;3.80;;
13989;SDS011;7069;52.528;13.316;2023-04-24T00:23:01;4.32;;;3.92;;
13989;SDS011;7069;52.528;13.316;2023-04-24T00:25:30;3.88;;;3.58;;
13989;SDS011;7069;52.528;13.316;2023-04-24T00:27:56;4.97;;;4.47;;
13989;SDS011;7069;52.528;13.316;2023-04-24T00:30:23;5.05;;;4.35;;
13989;SDS011;7069;52.528;13.316;2023-04-24T00:32:50;4.20;;;3.85;;
13989;SDS011;7069;52.528;13.316;2023-04-24T00:35:16;4.63;;;3.97;;
13989;SDS011;7069;52.528;13.316;2023-04-24T00:37:45;4.68;;;4.20;;
13989;SDS011;7069;52.528;13.316;2023-04-24T00:40:11;4.72;;;4.32;;
13989;SDS011;7069;52.528;13.316;2023-04-24T00:42:39;5.50;;;4.43;;
13989;SDS011;7069;52.528;13.316;2023-04-24T00:45:06;4.35;;;4.05;;
13989;SDS011;7069;52.528;13.316;2023-04-24T00:47:33;5.78;;;3.75;;
13989;SDS011;7069;52.528;13.316;2023-04-24T00:50:00;4.20;;;3.90;;
13989;SDS011;7069;52.528;13.316;2023-04-24T00:52:27;4.13;;;3.83;;
13989;SDS011;7069;52.528;13.316;2023-04-24T00:54:57;4.68;;;4.28;;
13989;SDS011;7069;52.528;13.316;2023-04-24T00:57:24;5.00;;;4.32;;
13989;SDS011;7069;52.528;13.316;2023-04-24T00:59:52;5.28;;;4.60;;
13989;SDS011;7069;52.528;13.316;2023-04-24T01:02:19;5.03;;;4.47;;
13989;SDS011;7069;52.528;13.316;2023-04-24T01:04:47;4.57;;;4.18;;
13989;SDS011;7069;52.528;13.316;2023-04-24T01:07:16;5.28;;;4.78;;
13989;SDS011;7069;52.528;13.316;2023-04-24T01:09:43;5.03;;;4.50;;
13989;SDS011;7069;52.528;13.316;2023-04-24T01:12:12;4.18;;;3.88;;
13989;SDS011;7069;52.528;13.316;2023-04-24T01:14:38;5.22;;;4.68;;
13989;SDS011;7069;52.528;13.316;2023-04-24T01:17:06;5.35;;;4.95;;
13989;SDS011;7069;52.528;13.316;2023-04-24T01:19:34;5.18;;;4.68;;
13989;SDS011;7069;52.528;13.316;2023-04-24T01:22:02;5.07;;;4.57;;
13989;SDS011;7069;52.528;13.316;2023-04-24T01:24:30;6.45;;;4.15;;
13989;SDS011;7069;52.528;13.316;2023-04-24T01:26:56;4.90;;;4.50;;
13989;SDS011;7069;52.528;13.316;2023-04-24T01:29:23;5.28;;;4.88;;
13989;SDS011;7069;52.528;13.316;2023-04-24T01:31:50;4.35;;;3.95;;
13989;SDS011;7069;52.528;13.316;2023-04-24T01:34:17;5.07;;;4.40;;
13989;SDS011;7069;52.528;13.316;2023-04-24T01:36:45;6.97;;;5.00;;
13989;SDS011;7069;52.528;13.316;2023-04-24T01:39:12;4.63;;;4.22;;
13989;SDS011;7069;52.528;13.316;2023-04-24T01:41:40;5.57;;;5.13;;
13989;SDS011;7069;52.528;13.316;2023-04-24T01:44:07;4.78;;;4.38;;
13989;SDS011;7069;52.528;13.316;2023-04-24T01:46:33;4.90;;;4.50;;
13989;SDS011;7069;52.528;13.316;2023-04-24T01:49:00;5.35;;;4.93;;
13989;SDS011;7069;52.528;13.316;2023-04-24T01:51:27;5.80;;;5.25;;
13989;SDS011;7069;52.528;13.316;2023-04-24T01:53:55;5.65;;;5.10;;
13989;SDS011;7069;52.528;13.316;2023-04-24T01:56:21;6.03;;;4.70;;
13989;SDS011;7069;52.528;13.316;2023-04-24T01:58:50;6.78;;;5.38;;
13989;SDS011;7069;52.528;13.316;2023-04-24T02:01:17;5.78;;;4.65;;
13989;SDS011;7069;52.528;13.316;2023-04-24T02:03:45;6.25;;;5.65;;
13989;SDS011;7069;52.528;13.316;2023-04-24T02:06:11;6.03;;;5.45;;
13989;SDS011;7069;52.528;13.316;2023-04-24T02:08:38;5.13;;;4.72;;
13989;SDS011;7069;52.528;13.316;2023-04-24T02:11:05;5.82;;;4.40;;
13989;SDS011;7069;52.528;13.316;2023-04-24T02:13:31;5.38;;;4.97;;
13989;SDS011;7069;52.528;13.316;2023-04-24T02:15:59;6.05;;;5.55;;
13989;SDS011;7069;52.528;13.316;2023-04-24T02:18:26;5.68;;;5.18;;
13989;SDS011;7069;52.528;13.316;2023-04-24T02:20:53;4.97;;;4.68;;
13989;SDS011;7069;52.528;13.316;2023-04-24T02:23:19;6.97;;;6.38;;
13989;SDS011;7069;52.528;13.316;2023-04-24T02:25:46;8.50;;;6.00;;
13989;SDS011;7069;52.528;13.316;2023-04-24T02:28:13;5.43;;;4.30;;
13989;SDS011;7069;52.528;13.316;2023-04-24T02:30:39;5.30;;;4.90;;
13989;SDS011;7069;52.528;13.316;2023-04-24T02:33:07;5.47;;;4.97;;
13989;SDS011;7069;52.528;13.316;2023-04-24T02:35:34;6.40;;;5.80;;
13989;SDS011;7069;52.528;13.316;2023-04-24T02:38:01;5.63;;;5.22;;
13989;SDS011;7069;52.528;13.316;2023-04-24T02:40:28;6.80;;;5.47;;
13989;SDS011;7069;52.528;13.316;2023-04-24T02:42:54;5.75;;;5.18;;
13989;SDS011;7069;52.528;13.316;2023-04-24T02:45:21;5.00;;;4.60;;
13989;SDS011;7069;52.528;13.316;2023-04-24T02:47:48;6.18;;;5.60;;
13989;SDS011;7069;52.528;13.316;2023-04-24T02:50:16;6.90;;;6.30;;
13989;SDS011;7069;52.528;13.316;2023-04-24T02:52:43;6.75;;;6.15;;
13989;SDS011;7069;52.528;13.316;2023-04-24T02:55:09;5.20;;;4.80;;
13989;SDS011;7069;52.528;13.316;2023-04-24T02:57:36;7.20;;;6.22;;
13989;SDS011;7069;52.528;13.316;2023-04-24T03:00:03;5.97;;;5.47;;
13989;SDS011;7069;52.528;13.316;2023-04-24T03:02:32;5.78;;;5.25;;
13989;SDS011;7069;52.528;13.316;2023-04-24T03:04:59;6.05;;;5.47;;
13989;SDS011;7069;52.528;13.316;2023-04-24T03:07:27;6.15;;;5.55;;
13989;SDS011;7069;52.528;13.316;2023-04-24T03:09:54;5.63;;;5.13;;
13989;SDS011;7069;52.528;13.316;2023-04-24T03:12:22;6.78;;;4.78;;
13989;SDS011;7069;52.528;13.316;2023-04-24T03:14:49;5.82;;;5.32;;
13989;SDS011;7069;52.528;13.316;2023-04-24T03:17:16;5.53;;;5.03;;
13989;SDS011;7069;52.528;13.316;2023-04-24T03:19:42;6.10;;;5.50;;
13989;SDS011;7069;52.528;13.316;2023-04-24T03:22:09;6.05;;;5.55;;
13989;SDS011;7069;52.528;13.316;2023-04-24T03:24:37;5.97;;;5.47;;
13989;SDS011;7069;52.528;13.316;2023-04-24T03:27:05;5.55;;;5.15;;
13989;SDS011;7069;52.528;13.316;2023-04-24T03:29:32;6.20;;;5.70;;
13989;SDS011;7069;52.528;13.316;2023-04-24T03:31:58;5.97;;;4.60;;
13989;SDS011;7069;52.528;13.316;2023-04-24T03:34:25;5.10;;;4.70;;
13989;SDS011;7069;52.528;13.316;2023-04-24T03:36:52;7.05;;;6.18;;
13989;SDS011;7069;52.528;13.316;2023-04-24T03:39:18;6.57;;;5.45;;
13989;SDS011;7069;52.528;13.316;2023-04-24T03:41:47;6.78;;;6.18;;
13989;SDS011;7069;52.528;13.316;2023-04-24T03:44:13;5.50;;;5.00;;
13989;SDS011;7069;52.528;13.316;2023-04-24T03:46:40;5.90;;;5.32;;
13989;SDS011;7069;52.528;13.316;2023-04-24T03:49:06;5.38;;;4.97;;
13989;SDS011;7069;52.528;13.316;2023-04-24T03:51:33;5.15;;;4.72;;
13989;SDS011;7069;52.528;13.316;2023-04-24T03:54:00;5.32;;;4.93;;
13989;SDS011;7069;52.528;13.316;2023-04-24T03:56:27;5.43;;;4.93;;
13989;SDS011;7069;52.528;13.316;2023-04-24T03:58:55;5.78;;;5.30;;
13989;SDS011;7069;52.528;13.316;2023-04-24T04:01:22;5.80;;;5.20;;
13989;SDS011;7069;52.528;13.316;2023-04-24T04:03:49;6.55;;;5.95;;
13989;SDS011;7069;52.528;13.316;2023-04-24T04:06:15;5.65;;;5.15;;
13989;SDS011;7069;52.528;13.316;2023-04-24T04:08:43;4.93;;;4.47;;
13989;SDS011;7069;52.528;13.316;2023-04-24T04:11:09;5.85;;;5.35;;
13989;SDS011;7069;52.528;13.316;2023-04-24T04:13:36;8.65;;;4.30;;
13989;SDS011;7069;52.528;13.316;2023-04-24T04:16:04;5.10;;;4.60;;
13989;SDS011;7069;52.528;13.316;2023-04-24T04:18:31;5.15;;;4.75;;
13989;SDS011;7069;52.528;13.316;2023-04-24T04:20:58;4.82;;;4.43;;
13989;SDS011;7069;52.528;13.316;2023-04-24T04:23:26;5.63;;;5.13;;
13989;SDS011;7069;52.528;13.316;2023-04-24T04:25:53;4.80;;;4.32;;
13989;SDS011;7069;52.528;13.316;2023-04-24T04:28:20;4.60;;;4.25;;
13989;SDS011;7069;52.528;13.316;2023-04-24T04:30:46;5.75;;;5.15;;
13989;SDS011;7069;52.528;13.316;2023-04-24T04:33:14;5.25;;;4.85;;
13989;SDS011;7069;52.528;13.316;2023-04-24T04:35:41;4.85;;;4.38;;
13989;SDS011;7069;52.528;13.316;2023-04-24T04:38:08;5.63;;;5.13;;
13989;SDS011;7069;52.528;13.316;2023-04-24T04:40:35;5.35;;;4.95;;
13989;SDS011;7069;52.528;13.316;2023-04-24T04:43:02;5.63;;;5.05;;
13989;SDS011;7069;52.528;13.316;2023-04-24T04:45:29;5.47;;;4.97;;
13989;SDS011;7069;52.528;13.316;2023-04-24T04:47:55;4.93;;;4.53;;
13989;SDS011;7069;52.528;13.316;2023-04-24T04:50:24;5.78;;;5.18;;
13989;SDS011;7069;52.528;13.316;2023-04-24T04:52:50;5.65;;;5.15;;
13989;SDS011;7069;52.528;13.316;2023-04-24T04:55:17;5.45;;;4.82;;
13989;SDS011;7069;52.528;13.316;2023-04-24T04:57:45;6.15;;;5.38;;
13989;SDS011;7069;52.528;13.316;2023-04-24T05:00:12;6.00;;;5.47;;
13989;SDS011;7069;52.528;13.316;2023-04-24T05:02:38;5.25;;;4.82;;
13989;SDS011;7069;52.528;13.316;2023-04-24T05:05:05;5.32;;;4.82;;
13989;SDS011;7069;52.528;13.316;2023-04-24T05:07:34;5.13;;;4.63;;
13989;SDS011;7069;52.528;13.316;2023-04-24T05:10:00;5.30;;;4.90;;
13989;SDS011;7069;52.528;13.316;2023-04-24T05:12:27;4.88;;;4.47;;
13989;SDS011;7069;52.528;13.316;2023-04-24T05:14:54;6.47;;;5.28;;
13989;SDS011;7069;52.528;13.316;2023-04-24T05:17:20;4.75;;;4.35;;
13989;SDS011;7069;52.528;13.316;2023-04-24T05:19:47;5.20;;;4.55;;
13989;SDS011;7069;52.528;13.316;2023-04-24T05:22:13;5.93;;;4.70;;
13989;SDS011;7069;52.528;13.316;2023-04-24T05:24:41;4.55;;;4.15;;
13989;SDS011;7069;52.528;13.316;2023-04-24T05:27:08;4.72;;;4.30;;
13989;SDS011;7069;52.528;13.316;2023-04-24T05:29:35;4.65;;;4.15;;
13989;SDS011;7069;52.528;13.316;2023-04-24T05:32:01;4.90;;;4.15;;
13989;SDS011;7069;52.528;13.316;2023-04-24T05:34:28;4.75;;;3.78;;
13989;SDS011;7069;52.528;13.316;2023-04-24T05:36:55;3.83;;;3.53;;
13989;SDS011;7069;52.528;13.316;2023-04-24T05:39:21;4.40;;;4.00;;
13989;SDS011;7069;52.528;13.316;2023-04-24T05:41:51;4.25;;;3.85;;
13989;SDS011;7069;52.528;13.316;2023-04-24T05:44:17;4.30;;;3.90;;
13989;SDS011;7069;52.528;13.316;2023-04-24T05:46:44;3.42;;;3.13;;
13989;SDS011;7069;52.528;13.316;2023-04-24T05:49:10;3.75;;;3.35;;
13989;SDS011;7069;52.528;13.316;2023-04-24T05:51:37;3.53;;;3.22;;
13989;SDS011;7069;52.528;13.316;2023-04-24T05:54:04;3.60;;;3.30;;
13989;SDS011;7069;52.528;13.316;2023-04-24T05:56:31;4.03;;;3.30;;
13989;SDS011;7069;52.528;13.316;2023-04-24T05:58:59;5.03;;;3.55;;
13989;SDS011;7069;52.528;13.316;2023-04-24T06:01:25;3.63;;;3.33;;
13989;SDS011;7069;52.528;13.316;2023-04-24T06:03:52;3.55;;;3.25;;
13989;SDS011;7069;52.528;13.316;2023-04-24T06:06:18;4.82;;;2.28;;
13989;SDS011;7069;52.528;13.316;2023-04-24T06:08:45;2.90;;;2.70;;
13989;SDS011;7069;52.528;13.316;2023-04-24T06:11:12;3.80;;;2.38;;
13989;SDS011;7069;52.528;13.316;2023-04-24T06:13:39;2.53;;;2.33;;
13989;SDS011;7069;52.528;13.316;2023-04-24T06:16:07;3.28;;;2.70;;
13989;SDS011;7069;52.528;13.316;2023-04-24T06:18:34;2.53;;;2.33;;
13989;SDS011;7069;52.528;13.316;2023-04-24T06:21:00;2.05;;;1.88;;
13989;SDS011;7069;52.528;13.316;2023-04-24T06:23:27;2.03;;;1.70;;
13989;SDS011;7069;52.528;13.316;2023-04-24T06:25:54;3.17;;;2.05;;
13989;SDS011;7069;52.528;13.316;2023-04-24T06:28:21;2.38;;;2.17;;
13989;SDS011;7069;52.528;13.316;2023-04-24T06:30:47;4.43;;;2.10;;
13989;SDS011;7069;52.528;13.316;2023-04-24T06:33:15;2.17;;;1.90;;
13989;SDS011;7069;52.528;13.316;2023-04-24T06:35:42;2.40;;;1.75;;
13989;SDS011;7069;52.528;13.316;2023-04-24T06:38:08;2.33;;;1.95;;
13989;SDS011;7069;52.528;13.316;2023-04-24T06:40:35;5.22;;;4.05;;
13989;SDS011;7069;52.528;13.316;2023-04-24T06:43:02;1.77;;;1.67;;
13989;SDS011;7069;52.528;13.316;2023-04-24T06:45:28;1.40;;;1.30;;
13989;SDS011;7069;52.528;13.316;2023-04-24T06:47:55;1.85;;;1.30;;
13989;SDS011;7069;52.528;13.316;2023-04-24T06:50:24;10.52;;;1.60;;
13989;SDS011;7069;52.528;13.316;2023-04-24T06:52:50;1.77;;;1.67;;
13989;SDS011;7069;52.528;13.316;2023-04-24T06:55:17;2.42;;;1.33;;
13989;SDS011;7069;52.528;13.316;2023-04-24T06:57:44;6.70;;;2.35;;
13989;SDS011;7069;52.528;13.316;2023-04-24T07:00:11;1.33;;;1.23;;
13989;SDS011;7069;52.528;13.316;2023-04-24T07:02:37;0.93;;;0.93;;
13989;SDS011;7069;52.528;13.316;2023-04-24T07:05:04;1.10;;;1.00;;
13989;SDS011;7069;52.528;13.316;2023-04-24T07:07:33;3.70;;;1.50;;
13989;SDS011;7069;52.528;13.316;2023-04-24T07:09:59;1.00;;;0.80;;
13989;SDS011;7069;52.528;13.316;2023-04-24T07:12:26;1.85;;;0.80;;
13989;SDS011;7069;52.528;13.316;2023-04-24T07:14:53;0.73;;;0.73;;
13989;SDS011;7069;52.528;13.316;2023-04-24T07:17:19;2.38;;;1.00;;
13989;SDS011;7069;52.528;13.316;2023-04-24T07:19:46;0.80;;;0.80;;
13989;SDS011;7069;52.528;13.316;2023-04-24T07:22:12;1.45;;;1.15;;
13989;SDS011;7069;52.528;13.316;2023-04-24T07:24:43;0.90;;;0.60;;
13989;SDS011;7069;52.528;13.316;2023-04-24T07:27:10;1.00;;;0.60;;
13989;SDS011;7069;52.528;13.316;2023-04-24T07:29:36;1.30;;;0.90;;
13989;SDS011;7069;52.528;13.316;2023-04-24T07:32:03;2.55;;;1.02;;
13989;SDS011;7069;52.528;13.316;2023-04-24T07:34:30;1.95;;;0.70;;
13989;SDS011;7069;52.528;13.316;2023-04-24T07:36:56;0.65;;;0.65;;
13989;SDS011;7069;52.528;13.316;2023-04-24T07:39:23;0.40;;;0.40;;
13989;SDS011;7069;52.528;13.316;2023-04-24T07:41:51;0.65;;;0.63;;
13989;SDS011;7069;52.528;13.316;2023-04-24T07:44:18;1.15;;;0.68;;
13989;SDS011;7069;52.528;13.316;2023-04-24T07:46:44;0.75;;;0.68;;
13989;SDS011;7069;52.528;13.316;2023-04-24T07:49:10;1.13;;;0.52;;
13989;SDS011;7069;52.528;13.316;2023-04-24T07:51:37;0.57;;;0.57;;
13989;SDS011;7069;52.528;13.316;2023-04-24T07:54:04;1.13;;;1.02;;
13989;SDS011;7069;52.528;13.316;2023-04-24T07:56:31;0.88;;;0.63;;
13989;SDS011;7069;52.528;13.316;2023-04-24T07:58:59;1.27;;;1.13;;
13989;SDS011;7069;52.528;13.316;2023-04-24T08:01:27;1.00;;;0.90;;
13989;SDS011;7069;52.528;13.316;2023-04-24T08:03:53;2.97;;;0.80;;
13989;SDS011;7069;52.528;13.316;2023-04-24T08:06:20;0.80;;;0.73;;
13989;SDS011;7069;52.528;13.316;2023-04-24T08:08:47;0.50;;;0.50;;
13989;SDS011;7069;52.528;13.316;2023-04-24T08:11:13;0.63;;;0.60;;
13989;SDS011;7069;52.528;13.316;2023-04-24T08:13:40;1.10;;;0.80;;
13989;SDS011;7069;52.528;13.316;2023-04-24T08:16:08;1.95;;;1.20;;
13989;SDS011;7069;52.528;13.316;2023-04-24T08:18:34;24.02;;;18.60;;
13989;SDS011;7069;52.528;13.316;2023-04-24T08:21:01;0.98;;;0.70;;
13989;SDS011;7069;52.528;13.316;2023-04-24T08:23:27;0.80;;;0.70;;
13989;SDS011;7069;52.528;13.316;2023-04-24T08:25:54;1.27;;;0.80;;
13989;SDS011;7069;52.528;13.316;2023-04-24T08:28:21;1.35;;;0.93;;
13989;SDS011;7069;52.528;13.316;2023-04-24T08:30:48;1.23;;;0.98;;
13989;SDS011;7069;52.528;13.316;2023-04-24T08:33:21;2.97;;;0.88;;
13989;SDS011;7069;52.528;13.316;2023-04-24T08:35:47;1.25;;;0.55;;
13989;SDS011;7069;52.528;13.316;2023-04-24T08:38:14;0.57;;;0.57;;
13989;SDS011;7069;52.528;13.316;2023-04-24T08:40:41;2.67;;;0.98;;
13989;SDS011;7069;52.528;13.316;2023-04-24T08:43:07;1.30;;;0.80;;
13989;SDS011;7069;52.528;13.316;2023-04-24T08:45:34;0.80;;;0.80;;
13989;SDS011;7069;52.528;13.316;2023-04-24T08:48:01;1.00;;;0.90;;
13989;SDS011;7069;52.528;13.316;2023-04-24T08:50:30;0.85;;;0.57;;
13989;SDS011;7069;52.528;13.316;2023-04-24T08:52:58;0.55;;;0.55;;
13989;SDS011;7069;52.528;13.316;2023-04-24T08:55:24;0.68;;;0.68;;
13989;SDS011;7069;52.528;13.316;2023-04-24T08:57:51;1.08;;;0.75;;
13989;SDS011;7069;52.528;13.316;2023-04-24T09:00:20;0.63;;;0.63;;
13989;SDS011;7069;52.528;13.316;2023-04-24T09:02:47;1.80;;;0.80;;
13989;SDS011;7069;52.528;13.316;2023-04-24T09:05:15;0.88;;;0.88;;
13989;SDS011;7069;52.528;13.316;2023-04-24T09:07:44;0.68;;;0.68;;
13989;SDS011;7069;52.528;13.316;2023-04-24T09:10:11;1.30;;;0.77;;
13989;SDS011;7069;52.528;13.316;2023-04-24T09:12:38;0.73;;;0.73;;
13989;SDS011;7069;52.528;13.316;2023-04-24T09:15:05;1.02;;;0.70;;
13989;SDS011;7069;52.528;13.316;2023-04-24T09:17:33;1.27;;;0.60;;
13989;SDS011;7069;52.528;13.316;2023-04-24T09:20:00;0.57;;;0.57;;
13989;SDS011;7069;52.528;13.316;2023-04-24T09:22:28;0.40;;;0.40;;
13989;SDS011;7069;52.528;13.316;2023-04-24T09:25:00;1.25;;;0.70;;
13989;SDS011;7069;52.528;13.316;2023-04-24T09:27:28;0.80;;;0.73;;
13989;SDS011;7069;52.528;13.316;2023-04-24T09:29:54;3.58;;;0.95;;
13989;SDS011;7069;52.528;13.316;2023-04-24T09:32:21;1.95;;;0.70;;
13989;SDS011;7069;52.528;13.316;2023-04-24T09:35:04;0.70;;;0.70;;
13989;SDS011;7069;52.528;13.316;2023-04-24T09:37:34;2.72;;;1.00;;
13989;SDS011;7069;52.528;13.316;2023-04-24T09:40:08;2.47;;;0.60;;
13989;SDS011;7069;52.528;13.316;2023-04-24T09:42:36;0.77;;;0.65;;
13989;SDS011;7069;52.528;13.316;2023-04-24T09:45:02;0.80;;;0.80;;
13989;SDS011;7069;52.528;13.316;2023-04-24T09:47:31;2.08;;;0.93;;
13989;SDS011;7069;52.528;13.316;2023-04-24T09:50:08;0.75;;;0.75;;
13989;SDS011;7069;52.528;13.316;2023-04-24T09:52:35;1.20;;;0.70;;
13989;SDS011;7069;52.528;13.316;2023-04-24T09:55:02;1.80;;;0.90;;
13989;SDS011;7069;52.528;13.316;2023-04-24T09:57:30;0.70;;;0.70;;
13989;SDS011;7069;52.528;13.316;2023-04-24T09:59:57;1.10;;;0.95;;
13989;SDS011;7069;52.528;13.316;2023-04-24T10:02:24;2.40;;;0.95;;
13989;SDS011;7069;52.528;13.316;2023-04-24T10:04:54;0.65;;;0.65;;
13989;SDS011;7069;52.528;13.316;2023-04-24T10:07:21;0.90;;;0.90;;
13989;SDS011;7069;52.528;13.316;2023-04-24T10:09:48;1.27;;;1.17;;
13989;SDS011;7069;52.528;13.316;2023-04-24T10:12:14;2.63;;;0.98;;
13989;SDS011;7069;52.528;13.316;2023-04-24T10:14:42;1.38;;;0.88;;
13989;SDS011;7069;52.528;13.316;2023-04-24T10:17:10;1.38;;;0.82;;
13989;SDS011;7069;52.528;13.316;2023-04-24T10:19:37;0.88;;;0.85;;
13989;SDS011;7069;52.528;13.316;2023-04-24T10:22:04;2.25;;;1.38;;
13989;SDS011;7069;52.528;13.316;2023-04-24T10:24:33;2.08;;;1.75;;
13989;SDS011;7069;52.528;13.316;2023-04-24T10:27:00;1.58;;;0.95;;
13989;SDS011;7069;52.528;13.316;2023-04-24T10:29:27;1.50;;;1.00;;
13989;SDS011;7069;52.528;13.316;2023-04-24T10:31:56;6.70;;;1.10;;
13989;SDS011;7069;52.528;13.316;2023-04-24T10:34:23;1.15;;;0.70;;
13989;SDS011;7069;52.528;13.316;2023-04-24T10:36:50;2.33;;;0.80;;
13989;SDS011;7069;52.528;13.316;2023-04-24T10:39:17;2.80;;;1.20;;
13989;SDS011;7069;52.528;13.316;2023-04-24T10:41:44;21.40;;;17.45;;
13989;SDS011;7069;52.528;13.316;2023-04-24T10:44:12;17.23;;;15.50;;
13989;SDS011;7069;52.528;13.316;2023-04-24T10:46:43;39.50;;;32.03;;
13989;SDS011;7069;52.528;13.316;2023-04-24T10:49:11;3.40;;;2.33;;
13989;SDS011;7069;52.528;13.316;2023-04-24T10:51:45;5.53;;;4.65;;
13989;SDS011;7069;52.528;13.316;2023-04-24T10:54:22;1.40;;;1.30;;
13989;SDS011;7069;52.528;13.316;2023-04-24T10:56:49;1.23;;;0.95;;
13989;SDS011;7069;52.528;13.316;2023-04-24T10:59:23;0.73;;;0.73;;
13989;SDS011;7069;52.528;13.316;2023-04-24T11:01:52;1.63;;;0.90;;
13989;SDS011;7069;52.528;13.316;2023-04-24T11:04:29;1.10;;;0.93;;
13989;SDS011;7069;52.528;13.316;2023-04-24T11:06:56;1.95;;;0.77;;
13989;SDS011;7069;52.528;13.316;2023-04-24T11:09:26;2.20;;;1.00;;
13989;SDS011;7069;52.528;13.316;2023-04-24T11:11:53;2.78;;;1.00;;
13989;SDS011;7069;52.528;13.316;2023-04-24T11:14:28;1.13;;;0.93;;
13989;SDS011;7069;52.528;13.316;2023-04-24T11:16:55;0.70;;;0.70;;
13989;SDS011;7069;52.528;13.316;2023-04-24T11:19:22;0.90;;;0.90;;
13989;SDS011;7069;52.528;13.316;2023-04-24T11:21:55;6.13;;;1.13;;
13989;SDS011;7069;52.528;13.316;2023-04-24T11:24:32;0.98;;;0.60;;
13989;SDS011;7069;52.528;13.316;2023-04-24T11:27:05;0.98;;;0.70;;
13989;SDS011;7069;52.528;13.316;2023-04-24T11:29:39;0.82;;;0.82;;
13989;SDS011;7069;52.528;13.316;2023-04-24T11:32:15;2.40;;;0.80;;
13989;SDS011;7069;52.528;13.316;2023-04-24T11:34:45;1.80;;;1.42;;
13989;SDS011;7069;52.528;13.316;2023-04-24T11:37:13;2.33;;;1.65;;
13989;SDS011;7069;52.528;13.316;2023-04-24T11:39:40;1.23;;;1.13;;
13989;SDS011;7069;52.528;13.316;2023-04-24T11:42:06;3.75;;;1.70;;
13989;SDS011;7069;52.528;13.316;2023-04-24T11:44:33;3.35;;;2.08;;
13989;SDS011;7069;52.528;13.316;2023-04-24T11:47:00;2.72;;;2.20;;
13989;SDS011;7069;52.528;13.316;2023-04-24T11:49:26;2.33;;;1.70;;
13989;SDS011;7069;52.528;13.316;2023-04-24T11:51:54;3.53;;;2.00;;
13989;SDS011;7069;52.528;13.316;2023-04-24T11:54:22;2.28;;;2.15;;
13989;SDS011;7069;52.528;13.316;2023-04-24T11:56:49;3.15;;;2.55;;
13989;SDS011;7069;52.528;13.316;2023-04-24T11:59:15;3.00;;;2.63;;
13989;SDS011;7069;52.528;13.316;2023-04-24T12:01:42;3.80;;;2.90;;
13989;SDS011;7069;52.528;13.316;2023-04-24T12:04:09;2.13;;;2.03;;
13989;SDS011;7069;52.528;13.316;2023-04-24T12:06:36;2.38;;;1.90;;
13989;SDS011;7069;52.528;13.316;2023-04-24T12:09:02;2.25;;;1.25;;
13989;SDS011;7069;52.528;13.316;2023-04-24T12:11:31;1.83;;;1.13;;
13989;SDS011;7069;52.528;13.316;2023-04-24T12:13:57;0.98;;;0.88;;
13989;SDS011;7069;52.528;13.316;2023-04-24T12:16:24;1.42;;;1.25;;
13989;SDS011;7069;52.528;13.316;2023-04-24T12:18:52;4.70;;;1.38;;
13989;SDS011;7069;52.528;13.316;2023-04-24T12:21:19;1.38;;;1.27;;
13989;SDS011;7069;52.528;13.316;2023-04-24T12:23:46;4.20;;;1.52;;
13989;SDS011;7069;52.528;13.316;2023-04-24T12:26:15;1.30;;;1.20;;
13989;SDS011;7069;52.528;13.316;2023-04-24T12:28:45;0.95;;;0.95;;
13989;SDS011;7069;52.528;13.316;2023-04-24T12:31:12;0.77;;;0.77;;
13989;SDS011;7069;52.528;13.316;2023-04-24T12:33:39;0.90;;;0.90;;
13989;SDS011;7069;52.528;13.316;2023-04-24T12:36:06;3.25;;;0.80;;
13989;SDS011;7069;52.528;13.316;2023-04-24T12:38:32;0.77;;;0.70;;
13989;SDS011;7069;52.528;13.316;2023-04-24T12:41:06;5.57;;;0.85;;
13989;SDS011;7069;52.528;13.316;2023-04-24T12:43:32;0.52;;;0.52;;
13989;SDS011;7069;52.528;13.316;2023-04-24T12:46:00;0.70;;;0.70;;
13989;SDS011;7069;52.528;13.316;2023-04-24T12:48:27;1.60;;;1.10;;
13989;SDS011;7069;52.528;13.316;2023-04-24T12:50:53;1.77;;;0.73;;
13989;SDS011;7069;52.528;13.316;2023-04-24T12:53:21;2.05;;;1.20;;
13989;SDS011;7069;52.528;13.316;2023-04-24T12:55:48;0.50;;;0.50;;
13989;SDS011;7069;52.528;13.316;2023-04-24T12:58:18;1.05;;;0.70;;
13989;SDS011;7069;52.528;13.316;2023-04-24T13:00:44;1.05;;;0.80;;
13989;SDS011;7069;52.528;13.316;2023-04-24T13:03:12;0.70;;;0.70;;
13989;SDS011;7069;52.528;13.316;2023-04-24T13:05:39;0.80;;;0.80;;
13989;SDS011;7069;52.528;13.316;2023-04-24T13:08:05;3.40;;;0.68;;
13989;SDS011;7069;52.528;13.316;2023-04-24T13:10:32;0.70;;;0.70;;
13989;SDS011;7069;52.528;13.316;2023-04-24T13:12:59;1.10;;;0.90;;
13989;SDS011;7069;52.528;13.316;2023-04-24T13:15:25;1.20;;;0.90;;
13989;SDS011;7069;52.528;13.316;2023-04-24T13:17:52;2.65;;;0.80;;
13989;SDS011;7069;52.528;13.316;2023-04-24T13:20:20;5.35;;;0.98;;
13989;SDS011;7069;52.528;13.316;2023-04-24T13:22:46;0.82;;;0.80;;
13989;SDS011;7069;52.528;13.316;2023-04-24T13:25:12;0.77;;;0.77;;
13989;SDS011;7069;52.528;13.316;2023-04-24T13:27:42;2.30;;;0.70;;
13989;SDS011;7069;52.528;13.316;2023-04-24T13:30:09;22.33;;;1.98;;
13989;SDS011;7069;52.528;13.316;2023-04-24T13:32:35;0.70;;;0.68;;
13989;SDS011;7069;52.528;13.316;2023-04-24T13:35:02;0.95;;;0.82;;
13989;SDS011;7069;52.528;13.316;2023-04-24T13:37:30;0.90;;;0.90;;
13989;SDS011;7069;52.528;13.316;2023-04-24T13:39:56;1.55;;;0.90;;
13989;SDS011;7069;52.528;13.316;2023-04-24T13:42:23;1.80;;;0.70;;
13989;SDS011;7069;52.528;13.316;2023-04-24T13:44:50;0.77;;;0.77;;
13989;SDS011;7069;52.528;13.316;2023-04-24T13:47:17;2.38;;;0.82;;
13989;SDS011;7069;52.528;13.316;2023-04-24T13:49:43;2.88;;;0.70;;
13989;SDS011;7069;52.528;13.316;2023-04-24T13:52:10;0.90;;;0.90;;
13989;SDS011;7069;52.528;13.316;2023-04-24T13:54:38;2.17;;;0.90;;
13989;SDS011;7069;52.528;13.316;2023-04-24T13:57:05;1.58;;;0.70;;
13989;SDS011;7069;52.528;13.316;2023-04-24T13:59:32;0.93;;;0.90;;
13989;SDS011;7069;52.528;13.316;2023-04-24T14:01:58;1.85;;;1.42;;
13989;SDS011;7069;52.528;13.316;2023-04-24T14:04:25;1.13;;;1.02;;
13989;SDS011;7069;52.528;13.316;2023-04-24T14:06:51;0.68;;;0.68;;
13989;SDS011;7069;52.528;13.316;2023-04-24T14:09:18;1.20;;;1.10;;
13989;SDS011;7069;52.528;13.316;2023-04-24T14:11:46;0.77;;;0.68;;
13989;SDS011;7069;52.528;13.316;2023-04-24T14:14:12;0.90;;;0.90;;
13989;SDS011;7069;52.528;13.316;2023-04-24T14:16:39;1.48;;;0.77;;
13989;SDS011;7069;52.528;13.316;2023-04-24T14:19:05;0.70;;;0.70;;
13989;SDS011;7069;52.528;13.316;2023-04-24T14:21:32;0.52;;;0.52;;
13989;SDS011;7069;52.528;13.316;2023-04-24T14:23:58;0.70;;;0.70;;
13989;SDS011;7069;52.528;13.316;2023-04-24T14:26:25;2.05;;;0.90;;
13989;SDS011;7069;52.528;13.316;2023-04-24T14:28:53;0.63;;;0.63;;
13989;SDS011;7069;52.528;13.316;2023-04-24T14:31:20;0.82;;;0.70;;
13989;SDS011;7069;52.528;13.316;2023-04-24T14:33:46;0.70;;;0.70;;
13989;SDS011;7069;52.528;13.316;2023-04-24T14:36:13;0.80;;;0.80;;
13989;SDS011;7069;52.528;13.316;2023-04-24T14:38:40;0.75;;;0.75;;
13989;SDS011;7069;52.528;13.316;2023-04-24T14:41:06;1.00;;;0.90;;
13989;SDS011;7069;52.528;13.316;2023-04-24T14:43:35;0.80;;;0.80;;
13989;SDS011;7069;52.528;13.316;2023-04-24T14:46:03;1.27;;;1.10;;
13989;SDS011;7069;52.528;13.316;2023-04-24T14:48:29;0.90;;;0.90;;